Time;durP1;ratioP1;P1;durP2;ratioP2;P2;SDS_P1;SDS_P2;PMS_P1;PMS_P2;Temp;Humidity;BMP_temperature;BMP_pressure;BME280_temperature;BME280_humidity;BME280_pressure;Samples;Min_cycle;Max_cycle;Signal;HPM_P1;HPM_P2
2022/08/10 00:02:32;;;;;;;;;4.25;4.25;;;;;;;;5074059;28;45683;-62
2022/08/10 00:04:57;;;;;;;;;5.25;4.00;;;;;;;;5073718;28;45368;-63
2022/08/10 00:07:23;;;;;;;;;2.75;2.75;;;;;;;;5052157;27;46727;-62
2022/08/10 00:09:48;;;;;;;;;3.75;3.25;;;;;;;;5056339;28;45416;-63
2022/08/10 00:12:13;;;;;;;;;5.00;5.00;;;;;;;;5057896;28;45337;-63
2022/08/10 00:14:38;;;;;;;;;3.25;3.25;;;;;;;;5073918;28;45343;-63
2022/08/10 00:17:04;;;;;;;;;5.75;4.75;;;;;;;;5055348;28;47564;-63
2022/08/10 00:19:29;;;;;;;;;4.50;4.50;;;;;;;;5073776;28;45448;-63
2022/08/10 00:21:54;;;;;;;;;4.00;3.00;;;;;;;;5073886;28;45569;-63
2022/08/10 00:24:19;;;;;;;;;6.00;3.00;;;;;;;;5072056;28;45394;-63
2022/08/10 00:26:44;;;;;;;;;4.00;4.00;;;;;;;;5061057;28;46817;-63
2022/08/10 00:29:10;;;;;;;;;5.00;5.00;;;;;;;;5073588;28;45383;-63
2022/08/10 00:31:35;;;;;;;;;3.00;3.00;;;;;;;;5073814;28;45514;-63
2022/08/10 00:34:00;;;;;;;;;5.00;5.00;;;;;;;;5073742;28;45311;-63
2022/08/10 00:36:25;;;;;;;;;5.75;4.50;;;;;;;;5073392;28;46744;-63
2022/08/10 00:38:50;;;;;;;;;3.25;3.25;;;;;;;;5073471;28;45558;-63
2022/08/10 00:41:15;;;;;;;;;5.00;5.00;;;;;;;;5073898;28;45421;-62
2022/08/10 00:43:41;;;;;;;;;5.75;4.50;;;;;;;;5072476;28;45398;-63
2022/08/10 00:46:06;;;;;;;;;4.75;4.75;;;;;;;;5063856;28;45937;-63
2022/08/10 00:48:31;;;;;;;;;4.00;4.00;;;;;;;;5060153;28;45360;-63
2022/08/10 00:50:59;;;;;;;;;2.00;2.00;;;;;;;;5067206;28;45341;-63
2022/08/10 00:53:26;;;;;;;;;5.00;5.00;;;;;;;;5035071;27;45547;-63
2022/08/10 00:55:51;;;;;;;;;5.25;4.75;;;;;;;;5052658;28;45772;-63
2022/08/10 00:58:16;;;;;;;;;4.50;3.00;;;;;;;;5065723;28;45436;-63
2022/08/10 01:00:42;;;;;;;;;4.25;3.25;;;;;;;;5073068;28;45392;-63
2022/08/10 01:03:07;;;;;;;;;4.75;4.75;;;;;;;;5044138;28;45339;-63
2022/08/10 01:05:34;;;;;;;;;4.00;2.75;;;;;;;;5073202;28;46550;-63
2022/08/10 01:08:09;;;;;;;;;3.75;3.75;;;;;;;;5063595;28;45490;-63
2022/08/10 01:10:34;;;;;;;;;3.25;3.25;;;;;;;;5071820;28;45387;-63
2022/08/10 01:13:05;;;;;;;;;3.75;3.75;;;;;;;;5069816;28;45356;-63
2022/08/10 01:15:38;;;;;;;;;5.00;5.00;;;;;;;;5052438;28;46646;-63
2022/08/10 01:18:04;;;;;;;;;3.75;3.75;;;;;;;;5052385;28;45385;-64
2022/08/10 01:20:34;;;;;;;;;3.50;3.50;;;;;;;;5063202;28;45417;-63
2022/08/10 01:23:02;;;;;;;;;4.00;4.00;;;;;;;;5072719;28;45363;-63
2022/08/10 01:25:28;;;;;;;;;6.50;4.75;;;;;;;;5057841;28;45353;-63
2022/08/10 01:28:08;;;;;;;;;4.00;4.00;;;;;;;;5069801;28;45424;-63
2022/08/10 01:30:34;;;;;;;;;7.50;7.50;;;;;;;;5072427;28;45392;-62
2022/08/10 01:33:07;;;;;;;;;7.25;5.25;;;;;;;;5072125;28;45434;-63
2022/08/10 01:35:38;;;;;;;;;1.00;1.00;;;;;;;;5072572;28;45922;-63
2022/08/10 01:38:09;;;;;;;;;4.75;4.75;;;;;;;;5072668;28;45394;-62
2022/08/10 01:40:37;;;;;;;;;5.00;5.00;;;;;;;;5072697;28;45481;-62
2022/08/10 01:43:05;;;;;;;;;5.25;5.25;;;;;;;;5072667;28;45386;-63
2022/08/10 01:45:31;;;;;;;;;5.25;5.25;;;;;;;;5072368;28;45691;-63
2022/08/10 01:50:47;;;;;;;;;4.00;4.00;;;;;;;;5072469;28;45320;-63
2022/08/10 01:53:15;;;;;;;;;5.00;5.00;;;;;;;;5072238;28;45338;-63
2022/08/10 01:55:42;;;;;;;;;3.50;3.50;;;;;;;;5074044;28;46713;-63
2022/08/10 01:58:08;;;;;;;;;2.25;2.00;;;;;;;;5075519;28;45246;-63
2022/08/10 02:00:35;;;;;;;;;3.25;3.25;;;;;;;;5075538;28;45203;-63
2022/08/10 02:03:01;;;;;;;;;4.25;4.25;;;;;;;;5075528;28;45508;-63
2022/08/10 02:05:28;;;;;;;;;3.75;3.75;;;;;;;;5075268;28;45886;-63
2022/08/10 02:07:56;;;;;;;;;5.25;5.25;;;;;;;;5057378;28;45483;-63
2022/08/10 02:10:22;;;;;;;;;4.00;4.00;;;;;;;;5075436;28;45221;-63
2022/08/10 02:12:48;;;;;;;;;6.50;6.00;;;;;;;;5075354;28;45235;-63
2022/08/10 02:15:15;;;;;;;;;5.50;4.75;;;;;;;;5075174;28;46489;-63
2022/08/10 02:17:44;;;;;;;;;3.75;3.75;;;;;;;;5075230;28;45420;-63
2022/08/10 02:20:11;;;;;;;;;5.50;4.75;;;;;;;;5075520;28;45282;-63
2022/08/10 02:22:37;;;;;;;;;6.00;5.00;;;;;;;;5075235;27;45338;-63
2022/08/10 02:25:04;;;;;;;;;6.00;6.00;;;;;;;;5075048;28;45823;-63
2022/08/10 02:27:30;;;;;;;;;3.50;3.00;;;;;;;;5074849;28;45661;-63
2022/08/10 02:29:56;;;;;;;;;6.00;6.00;;;;;;;;5075315;27;45384;-64
2022/08/10 02:32:22;;;;;;;;;4.75;4.75;;;;;;;;5075125;28;45417;-64
2022/08/10 02:34:49;;;;;;;;;4.25;4.25;;;;;;;;5074997;28;46552;-63
2022/08/10 02:37:16;;;;;;;;;5.00;5.00;;;;;;;;5074870;28;45418;-63
2022/08/10 02:39:41;;;;;;;;;5.00;4.00;;;;;;;;5074978;28;45377;-63
2022/08/10 02:42:15;;;;;;;;;5.50;5.50;;;;;;;;5075111;28;45349;-64
2022/08/10 02:44:48;;;;;;;;;7.00;5.50;;;;;;;;5074892;28;45365;-63
2022/08/10 02:47:19;;;;;;;;;5.50;5.50;;;;;;;;5056581;28;45735;-64
2022/08/10 02:49:48;;;;;;;;;7.00;5.75;;;;;;;;5074987;28;45388;-64
2022/08/10 02:52:16;;;;;;;;;5.00;5.00;;;;;;;;5074861;28;45285;-63
2022/08/10 02:54:47;;;;;;;;;5.75;5.75;;;;;;;;5056468;28;47576;-63
2022/08/10 02:57:15;;;;;;;;;3.75;3.75;;;;;;;;5074515;28;45377;-63
2022/08/10 02:59:46;;;;;;;;;8.25;6.75;;;;;;;;5074782;28;45375;-64
2022/08/10 03:02:18;;;;;;;;;4.75;4.00;;;;;;;;5074769;28;45341;-63
2022/08/10 03:04:46;;;;;;;;;4.25;4.25;;;;;;;;5074500;28;46449;-63
2022/08/10 03:07:14;;;;;;;;;3.00;3.00;;;;;;;;5073816;28;45385;-63
2022/08/10 03:09:40;;;;;;;;;7.00;4.75;;;;;;;;5074739;28;45394;-62
2022/08/10 03:12:07;;;;;;;;;4.00;4.00;;;;;;;;5074712;28;45433;-63
2022/08/10 03:14:34;;;;;;;;;4.25;4.25;;;;;;;;5074515;28;46349;-63
2022/08/10 03:17:01;;;;;;;;;4.00;4.00;;;;;;;;5074396;28;45377;-64
2022/08/10 03:19:26;;;;;;;;;6.00;5.00;;;;;;;;5074513;28;45361;-63
2022/08/10 03:21:53;;;;;;;;;3.00;3.00;;;;;;;;5056236;28;45357;-63
2022/08/10 03:24:21;;;;;;;;;4.50;4.50;;;;;;;;5074519;28;45680;-63
2022/08/10 03:26:48;;;;;;;;;6.00;4.25;;;;;;;;5074221;28;45344;-63
2022/08/10 03:29:13;;;;;;;;;4.50;4.50;;;;;;;;5074419;28;45295;-63
2022/08/10 03:31:39;;;;;;;;;5.50;5.50;;;;;;;;5074460;28;45335;-64
2022/08/10 03:34:04;;;;;;;;;4.25;4.25;;;;;;;;5074271;28;46092;-63
2022/08/10 03:36:30;;;;;;;;;6.75;6.75;;;;;;;;5074400;28;45629;-63
2022/08/10 03:38:55;;;;;;;;;8.00;7.00;;;;;;;;5074471;28;45339;-63
2022/08/10 03:41:35;;;;;;;;;5.00;5.00;;;;;;;;5074262;28;45383;-63
2022/08/10 03:44:02;;;;;;;;;5.25;4.25;;;;;;;;5074215;28;46524;-64
2022/08/10 03:46:28;;;;;;;;;5.00;4.00;;;;;;;;5074055;28;45238;-63
2022/08/10 03:48:55;;;;;;;;;5.00;5.00;;;;;;;;5074171;28;45370;-63
2022/08/10 03:51:21;;;;;;;;;5.50;5.50;;;;;;;;5074202;28;45372;-63
2022/08/10 03:53:47;;;;;;;;;5.00;5.00;;;;;;;;5073719;28;48613;-63
2022/08/10 03:56:12;;;;;;;;;6.00;6.00;;;;;;;;5055931;27;45833;-63
2022/08/10 03:58:37;;;;;;;;;5.25;5.25;;;;;;;;5056195;28;45432;-62
2022/08/10 04:01:03;;;;;;;;;6.50;5.50;;;;;;;;5074250;28;45417;-63
2022/08/10 04:03:28;;;;;;;;;4.50;4.00;;;;;;;;5073888;28;47177;-64
2022/08/10 04:05:54;;;;;;;;;5.25;5.25;;;;;;;;5074224;28;45406;-62
2022/08/10 04:08:19;;;;;;;;;4.75;4.00;;;;;;;;5074140;28;45448;-63
2022/08/10 04:10:44;;;;;;;;;6.25;5.75;;;;;;;;5055749;28;45560;-63
2022/08/10 04:13:10;;;;;;;;;5.50;5.50;;;;;;;;5073846;28;46039;-64
2022/08/10 04:15:35;;;;;;;;;4.00;4.00;;;;;;;;5073790;28;45331;-64
2022/08/10 04:18:01;;;;;;;;;3.50;3.50;;;;;;;;5072876;28;45408;-64
2022/08/10 04:20:35;;;;;;;;;4.75;4.75;;;;;;;;5073718;28;45211;-63
2022/08/10 04:23:03;;;;;;;;;5.25;5.25;;;;;;;;5073417;28;46493;-64
2022/08/10 04:25:29;;;;;;;;;5.00;5.00;;;;;;;;5073466;28;45217;-64
2022/08/10 04:27:55;;;;;;;;;5.00;5.00;;;;;;;;5073671;28;45411;-62
2022/08/10 04:30:20;;;;;;;;;5.50;5.00;;;;;;;;5055563;28;45515;-62
2022/08/10 04:32:47;;;;;;;;;5.25;5.25;;;;;;;;5073463;28;47753;-63
2022/08/10 04:35:15;;;;;;;;;7.25;6.00;;;;;;;;5073653;28;45417;-64
2022/08/10 04:37:41;;;;;;;;;6.50;6.00;;;;;;;;5073684;28;45354;-63
2022/08/10 04:40:07;;;;;;;;;5.00;5.00;;;;;;;;5055338;28;45386;-63
2022/08/10 04:42:32;;;;;;;;;7.00;6.00;;;;;;;;5073233;27;46758;-64
2022/08/10 04:44:58;;;;;;;;;5.75;5.00;;;;;;;;5073491;28;45345;-63
2022/08/10 04:47:23;;;;;;;;;7.00;7.00;;;;;;;;5073389;28;45199;-63
2022/08/10 04:49:48;;;;;;;;;7.75;6.75;;;;;;;;5073698;28;45309;-63
2022/08/10 04:52:13;;;;;;;;;6.75;5.00;;;;;;;;5073235;28;45818;-63
2022/08/10 04:54:39;;;;;;;;;5.00;5.00;;;;;;;;5073444;28;45357;-63
2022/08/10 04:57:04;;;;;;;;;4.25;4.25;;;;;;;;5055288;28;45308;-63
2022/08/10 04:59:29;;;;;;;;;3.50;3.50;;;;;;;;5073272;28;45477;-63
2022/08/10 05:01:54;;;;;;;;;5.25;4.00;;;;;;;;5073174;28;46539;-64
2022/08/10 05:04:20;;;;;;;;;7.00;6.00;;;;;;;;5073090;28;45370;-64
2022/08/10 05:06:45;;;;;;;;;6.50;4.00;;;;;;;;5073368;28;45356;-63
2022/08/10 05:09:10;;;;;;;;;3.75;3.75;;;;;;;;5073277;28;45376;-63
2022/08/10 05:11:35;;;;;;;;;3.00;3.00;;;;;;;;5073137;28;45403;-63
2022/08/10 05:14:00;;;;;;;;;5.00;5.00;;;;;;;;5054874;28;45366;-64
2022/08/10 05:16:26;;;;;;;;;6.00;4.00;;;;;;;;5073060;28;45341;-63
2022/08/10 05:18:51;;;;;;;;;4.25;4.25;;;;;;;;5054882;28;45336;-64
2022/08/10 05:21:16;;;;;;;;;5.00;5.00;;;;;;;;5072707;28;46609;-64
2022/08/10 05:23:41;;;;;;;;;4.50;4.50;;;;;;;;5073011;28;45329;-64
2022/08/10 05:26:06;;;;;;;;;5.75;4.25;;;;;;;;5072882;28;45338;-64
2022/08/10 05:28:32;;;;;;;;;6.00;6.00;;;;;;;;5072982;28;45349;-64
2022/08/10 05:30:57;;;;;;;;;5.25;4.50;;;;;;;;5075038;28;45264;-64
2022/08/10 05:33:22;;;;;;;;;4.00;4.00;;;;;;;;5058150;28;46196;-64
2022/08/10 05:35:47;;;;;;;;;4.75;4.75;;;;;;;;5076209;28;45355;-64
2022/08/10 05:38:12;;;;;;;;;4.75;4.75;;;;;;;;5057907;28;45500;-64
2022/08/10 05:40:39;;;;;;;;;4.75;4.75;;;;;;;;5075619;28;45900;-63
2022/08/10 05:43:05;;;;;;;;;5.00;5.00;;;;;;;;5075825;28;45287;-64
2022/08/10 05:45:30;;;;;;;;;3.00;3.00;;;;;;;;5075641;28;45334;-63
2022/08/10 05:47:55;;;;;;;;;4.75;4.75;;;;;;;;5076037;28;45276;-63
2022/08/10 05:50:23;;;;;;;;;5.25;4.75;;;;;;;;5075532;28;47039;-63
2022/08/10 05:52:49;;;;;;;;;4.25;3.75;;;;;;;;5075636;28;45210;-64
2022/08/10 05:55:14;;;;;;;;;4.50;4.50;;;;;;;;5075805;28;45221;-65
2022/08/10 05:57:40;;;;;;;;;7.00;6.00;;;;;;;;5075759;28;45730;-64
2022/08/10 06:00:08;;;;;;;;;7.25;5.00;;;;;;;;5040573;28;46731;-64
2022/08/10 06:02:39;;;;;;;;;7.75;7.25;;;;;;;;5075311;28;45503;-64
2022/08/10 06:05:12;;;;;;;;;5.00;5.00;;;;;;;;5057359;27;45222;-63
2022/08/10 06:07:46;;;;;;;;;4.00;4.00;;;;;;;;5075599;28;45178;-64
2022/08/10 06:10:13;;;;;;;;;5.25;5.25;;;;;;;;5075308;28;46515;-64
2022/08/10 06:12:39;;;;;;;;;6.00;6.00;;;;;;;;5075551;28;45154;-64
2022/08/10 06:15:05;;;;;;;;;5.50;5.50;;;;;;;;5075470;28;45333;-64
2022/08/10 06:17:31;;;;;;;;;6.00;6.00;;;;;;;;5075119;28;45268;-64
2022/08/10 06:19:57;;;;;;;;;6.50;6.00;;;;;;;;5075289;28;46552;-63
2022/08/10 06:22:23;;;;;;;;;6.50;6.50;;;;;;;;5075267;27;45440;-64
2022/08/10 06:24:48;;;;;;;;;4.50;4.50;;;;;;;;5040288;28;45363;-63
2022/08/10 06:27:14;;;;;;;;;5.75;5.75;;;;;;;;5075202;28;45360;-64
2022/08/10 06:29:40;;;;;;;;;4.00;4.00;;;;;;;;5074903;28;46128;-63
2022/08/10 06:32:07;;;;;;;;;6.00;6.00;;;;;;;;5075103;28;45351;-64
2022/08/10 06:34:34;;;;;;;;;9.75;8.50;;;;;;;;5075284;28;45279;-64
2022/08/10 06:37:03;;;;;;;;;5.00;5.00;;;;;;;;5075843;28;45401;-64
2022/08/10 06:39:29;;;;;;;;;8.00;7.00;;;;;;;;5074964;28;46601;-64
2022/08/10 06:41:58;;;;;;;;;5.50;5.50;;;;;;;;5073902;28;45386;-64
2022/08/10 06:44:27;;;;;;;;;7.25;7.25;;;;;;;;5075070;28;45360;-63
2022/08/10 06:46:53;;;;;;;;;7.25;7.25;;;;;;;;5074819;28;45370;-64
2022/08/10 06:49:20;;;;;;;;;8.25;5.25;;;;;;;;5074732;28;46322;-64
2022/08/10 06:51:46;;;;;;;;;9.00;6.25;;;;;;;;5074899;28;45369;-63
2022/08/10 06:54:13;;;;;;;;;8.25;8.25;;;;;;;;5056897;27;45217;-66
2022/08/10 06:56:39;;;;;;;;;8.75;7.25;;;;;;;;5056512;28;45426;-65
2022/08/10 06:59:08;;;;;;;;;10.25;8.50;;;;;;;;5074649;28;46905;-64
2022/08/10 07:01:35;;;;;;;;;12.75;8.25;;;;;;;;5074574;28;45347;-64
2022/08/10 07:04:10;;;;;;;;;6.75;6.75;;;;;;;;5074773;28;45222;-65
2022/08/10 07:06:39;;;;;;;;;7.75;7.75;;;;;;;;5074885;28;45357;-65
2022/08/10 07:09:05;;;;;;;;;8.75;8.75;;;;;;;;5074749;28;46589;-67
2022/08/10 07:11:31;;;;;;;;;9.25;8.00;;;;;;;;5074924;28;45429;-64
2022/08/10 07:13:58;;;;;;;;;6.00;6.00;;;;;;;;5074775;28;45353;-64
2022/08/10 07:16:27;;;;;;;;;8.00;6.75;;;;;;;;5074584;28;45466;-66
2022/08/10 07:18:53;;;;;;;;;9.00;9.00;;;;;;;;5074291;28;45720;-65
2022/08/10 07:21:20;;;;;;;;;9.50;9.25;;;;;;;;5074408;28;45243;-64
2022/08/10 07:23:48;;;;;;;;;3.00;3.00;;;;;;;;5074531;28;45323;-65
2022/08/10 07:26:15;;;;;;;;;8.25;8.25;;;;;;;;5074359;28;45412;-65
2022/08/10 07:28:41;;;;;;;;;8.00;8.00;;;;;;;;5074231;28;45737;-66
2022/08/10 07:31:06;;;;;;;;;8.50;7.00;;;;;;;;5056402;28;45237;-64
2022/08/10 07:33:33;;;;;;;;;8.50;8.00;;;;;;;;5074526;28;45397;-64
2022/08/10 07:35:58;;;;;;;;;11.25;8.25;;;;;;;;5074463;28;45806;-64
2022/08/10 07:38:28;;;;;;;;;6.75;6.00;;;;;;;;5073959;28;45805;-64
2022/08/10 07:40:54;;;;;;;;;9.75;7.50;;;;;;;;5074131;28;45530;-64
2022/08/10 07:43:22;;;;;;;;;8.00;8.00;;;;;;;;5074483;28;45272;-64
2022/08/10 07:45:48;;;;;;;;;9.25;8.50;;;;;;;;5074222;28;45361;-65
2022/08/10 07:48:23;;;;;;;;;8.25;7.25;;;;;;;;5056029;28;45642;-64
2022/08/10 07:50:50;;;;;;;;;7.50;6.25;;;;;;;;5074227;28;45382;-64
2022/08/10 07:53:17;;;;;;;;;9.00;7.50;;;;;;;;5055855;28;45375;-63
2022/08/10 07:55:45;;;;;;;;;9.75;7.00;;;;;;;;5073821;28;45473;-63
2022/08/10 07:58:11;;;;;;;;;8.25;8.25;;;;;;;;5073978;28;45721;-64
2022/08/10 08:00:37;;;;;;;;;9.50;8.50;;;;;;;;5055832;28;46318;-63
2022/08/10 08:03:06;;;;;;;;;10.75;8.25;;;;;;;;5074177;28;45304;-65
2022/08/10 08:05:32;;;;;;;;;7.00;7.00;;;;;;;;5073882;28;45392;-64
2022/08/10 08:07:59;;;;;;;;;8.75;7.75;;;;;;;;5073926;28;45725;-64
2022/08/10 08:10:25;;;;;;;;;12.00;10.00;;;;;;;;5073918;28;45389;-64
2022/08/10 08:12:51;;;;;;;;;8.50;8.50;;;;;;;;5055615;28;45379;-65
2022/08/10 08:15:21;;;;;;;;;7.25;7.00;;;;;;;;5074002;28;45284;-63
2022/08/10 08:17:48;;;;;;;;;7.50;7.50;;;;;;;;5055436;28;48985;-64
2022/08/10 08:20:16;;;;;;;;;9.75;9.75;;;;;;;;5055988;28;45517;-64
2022/08/10 08:22:42;;;;;;;;;9.50;8.50;;;;;;;;5073595;28;45407;-64
2022/08/10 08:25:07;;;;;;;;;7.50;7.50;;;;;;;;5073843;28;45187;-63
2022/08/10 08:27:33;;;;;;;;;7.25;7.25;;;;;;;;5073466;28;45288;-64
2022/08/10 08:29:59;;;;;;;;;11.00;7.25;;;;;;;;5073468;28;45282;-64
2022/08/10 08:32:25;;;;;;;;;8.75;7.50;;;;;;;;5073866;28;45416;-64
2022/08/10 08:34:56;;;;;;;;;9.25;8.00;;;;;;;;5073761;28;45436;-64
2022/08/10 08:37:22;;;;;;;;;7.75;7.75;;;;;;;;5073400;28;46175;-63
2022/08/10 08:39:47;;;;;;;;;5.25;5.25;;;;;;;;5055422;28;45416;-63
2022/08/10 08:42:19;;;;;;;;;10.50;8.25;;;;;;;;5073445;28;45428;-63
2022/08/10 08:44:44;;;;;;;;;9.00;7.25;;;;;;;;5073556;28;45482;-64
2022/08/10 08:47:28;;;;;;;;;6.25;6.25;;;;;;;;5055059;28;47451;-63
2022/08/10 08:50:03;;;;;;;;;8.00;8.00;;;;;;;;5073574;28;45318;-63
2022/08/10 08:52:31;;;;;;;;;7.25;7.25;;;;;;;;5073578;28;45377;-64
2022/08/10 08:55:02;;;;;;;;;8.00;7.00;;;;;;;;5073357;28;45357;-62
2022/08/10 08:57:33;;;;;;;;;8.75;6.75;;;;;;;;5072944;28;46380;-63
2022/08/10 09:00:12;;;;;;;;;8.00;8.00;;;;;;;;5055025;28;45275;-64
2022/08/10 09:02:37;;;;;;;;;10.25;10.25;;;;;;;;5055139;27;45328;-63
2022/08/10 09:05:12;;;;;;;;;8.00;8.00;;;;;;;;5072083;28;45385;-64
2022/08/10 09:07:56;;;;;;;;;8.00;8.00;;;;;;;;5073227;28;46696;-62
2022/08/10 09:10:27;;;;;;;;;8.00;7.75;;;;;;;;5054791;28;45500;-63
2022/08/10 09:13:11;;;;;;;;;7.50;7.25;;;;;;;;5073116;28;45261;-63
2022/08/10 09:15:36;;;;;;;;;10.00;8.00;;;;;;;;5073029;28;45383;-62
2022/08/10 09:18:02;;;;;;;;;10.50;9.50;;;;;;;;5054505;28;47515;-62
2022/08/10 09:20:27;;;;;;;;;8.50;8.50;;;;;;;;5073051;28;45376;-64
2022/08/10 09:22:56;;;;;;;;;7.75;6.25;;;;;;;;5073014;28;45358;-63
2022/08/10 09:25:24;;;;;;;;;9.75;8.75;;;;;;;;5072970;28;45423;-62
2022/08/10 09:28:01;;;;;;;;;4.00;4.00;;;;;;;;5054345;28;46721;-62
2022/08/10 09:30:33;;;;;;;;;7.75;7.75;;;;;;;;5054576;28;45340;-63
2022/08/10 09:33:11;;;;;;;;;10.50;9.00;;;;;;;;5054664;27;45371;-62
2022/08/10 09:35:54;;;;;;;;;9.00;8.00;;;;;;;;5072675;28;45246;-62
2022/08/10 09:38:19;;;;;;;;;7.25;7.00;;;;;;;;5072553;28;45244;-62
2022/08/10 09:40:53;;;;;;;;;7.25;7.25;;;;;;;;5072703;28;45339;-62
2022/08/10 09:43:29;;;;;;;;;8.25;8.25;;;;;;;;5072660;28;45336;-65
2022/08/10 09:46:05;;;;;;;;;10.00;9.00;;;;;;;;5054206;28;45494;-64
2022/08/10 09:48:40;;;;;;;;;6.00;6.00;;;;;;;;5072223;28;47393;-63
2022/08/10 09:51:29;;;;;;;;;8.75;8.25;;;;;;;;5072410;28;45390;-63
2022/08/10 09:54:09;;;;;;;;;8.00;6.75;;;;;;;;5054315;28;45281;-64
2022/08/10 09:56:46;;;;;;;;;8.00;8.00;;;;;;;;5072477;28;45306;-62
2022/08/10 09:59:11;;;;;;;;;5.25;5.25;;;;;;;;5072297;28;45736;-63
2022/08/10 10:01:57;;;;;;;;;6.00;6.00;;;;;;;;5072264;28;45352;-63
2022/08/10 10:04:31;;;;;;;;;7.25;7.25;;;;;;;;5072377;28;45362;-63
2022/08/10 10:07:07;;;;;;;;;6.25;6.25;;;;;;;;5053960;28;45394;-62
2022/08/10 10:09:51;;;;;;;;;8.00;8.00;;;;;;;;5071957;28;45856;-63
2022/08/10 10:12:25;;;;;;;;;7.75;7.00;;;;;;;;5071983;28;45371;-63
2022/08/10 10:15:22;;;;;;;;;6.00;6.00;;;;;;;;5054151;27;45370;-61
2022/08/10 10:17:59;;;;;;;;;6.00;6.00;;;;;;;;5074123;28;45411;-63
2022/08/10 10:20:31;;;;;;;;;6.00;6.00;;;;;;;;5075114;28;46489;-63
2022/08/10 10:23:06;;;;;;;;;8.00;8.00;;;;;;;;5053202;28;45274;-63
2022/08/10 10:25:43;;;;;;;;;14.00;12.00;;;;;;;;5053162;28;45322;-64
2022/08/10 10:28:09;;;;;;;;;13.25;12.00;;;;;;;;5051877;28;45588;-63
2022/08/10 10:30:51;;;;;;;;;9.00;7.75;;;;;;;;5052489;28;46518;-62
2022/08/10 10:33:43;;;;;;;;;6.00;6.00;;;;;;;;5050826;28;46245;-63
2022/08/10 10:36:09;;;;;;;;;6.75;6.75;;;;;;;;5068700;28;45556;-63
2022/08/10 10:38:35;;;;;;;;;5.50;5.25;;;;;;;;5074044;28;45735;-65
2022/08/10 10:41:12;;;;;;;;;5.75;5.75;;;;;;;;5072407;28;47598;-63
2022/08/10 10:43:37;;;;;;;;;8.75;7.00;;;;;;;;5074228;28;45401;-64
2022/08/10 10:46:03;;;;;;;;;8.00;8.00;;;;;;;;5056742;28;45493;-64
2022/08/10 10:48:38;;;;;;;;;8.50;6.00;;;;;;;;5073534;28;45559;-62
2022/08/10 10:51:20;;;;;;;;;5.25;5.25;;;;;;;;5073773;28;46666;-63
2022/08/10 10:53:51;;;;;;;;;6.75;6.75;;;;;;;;5073442;28;45425;-62
2022/08/10 10:56:39;;;;;;;;;6.75;6.75;;;;;;;;5073365;28;45552;-62
2022/08/10 10:59:23;;;;;;;;;6.75;6.75;;;;;;;;5063127;28;45612;-63
2022/08/10 11:01:51;;;;;;;;;6.75;6.75;;;;;;;;5072153;28;46140;-62
2022/08/10 11:04:23;;;;;;;;;7.00;7.00;;;;;;;;5072680;28;45583;-62
2022/08/10 11:06:59;;;;;;;;;5.50;5.50;;;;;;;;5071786;28;45483;-63
2022/08/10 11:09:35;;;;;;;;;6.00;6.00;;;;;;;;5054911;28;45823;-63
2022/08/10 11:12:05;;;;;;;;;4.75;4.75;;;;;;;;5067691;28;46263;-64
2022/08/10 11:14:39;;;;;;;;;5.00;5.00;;;;;;;;5050872;27;45525;-62
2022/08/10 11:17:21;;;;;;;;;6.75;6.25;;;;;;;;5049913;28;45442;-63
2022/08/10 11:20:05;;;;;;;;;6.50;6.50;;;;;;;;5050830;28;45555;-63
2022/08/10 11:22:33;;;;;;;;;8.25;7.25;;;;;;;;5051000;28;45911;-64
2022/08/10 11:25:07;;;;;;;;;7.00;7.00;;;;;;;;5051087;28;45388;-63
2022/08/10 11:27:37;;;;;;;;;8.00;8.00;;;;;;;;5050229;28;45332;-62
2022/08/10 11:30:08;;;;;;;;;6.00;6.00;;;;;;;;5050973;28;45561;-62
2022/08/10 11:32:52;;;;;;;;;8.75;8.75;;;;;;;;5050605;28;46407;-63
2022/08/10 11:35:18;;;;;;;;;7.00;7.00;;;;;;;;5033378;27;45469;-63
2022/08/10 11:37:54;;;;;;;;;6.50;6.50;;;;;;;;5051779;28;45369;-64
2022/08/10 11:40:25;;;;;;;;;8.00;7.00;;;;;;;;5052069;28;45378;-63
2022/08/10 11:43:09;;;;;;;;;6.50;6.50;;;;;;;;5052714;28;47388;-63
2022/08/10 11:45:36;;;;;;;;;9.00;9.00;;;;;;;;5052609;28;45289;-63
2022/08/10 11:48:08;;;;;;;;;8.00;7.00;;;;;;;;5052756;28;45345;-63
2022/08/10 11:50:44;;;;;;;;;8.00;7.50;;;;;;;;5051916;28;45376;-62
2022/08/10 11:53:09;;;;;;;;;7.25;7.25;;;;;;;;5042709;28;46833;-64
2022/08/10 11:55:35;;;;;;;;;6.75;6.50;;;;;;;;5060853;28;45405;-61
2022/08/10 11:59:55;;;;;;;;;7.25;7.25;;;;;;;;5061540;28;45674;-63
2022/08/10 12:00:53;;;;;;;;;9.00;9.00;;;;;;;;5060831;27;45446;-63
2022/08/10 12:03:18;;;;;;;;;7.25;7.25;;;;;;;;5061667;27;45368;-62
2022/08/10 12:05:45;;;;;;;;;6.00;6.00;;;;;;;;5045540;28;45583;-64
2022/08/10 12:08:10;;;;;;;;;5.75;5.75;;;;;;;;5059746;28;45366;-63
2022/08/10 12:10:36;;;;;;;;;6.25;6.25;;;;;;;;5062218;27;45412;-63
2022/08/10 12:13:18;;;;;;;;;8.75;7.50;;;;;;;;5043723;28;48570;-64
2022/08/10 12:15:54;;;;;;;;;7.75;7.75;;;;;;;;5060852;27;45434;-63
2022/08/10 12:18:44;;;;;;;;;6.00;6.00;;;;;;;;5072754;27;45474;-62
2022/08/10 12:21:17;;;;;;;;;9.50;7.00;;;;;;;;5072464;27;45481;-63
2022/08/10 12:23:47;;;;;;;;;5.00;5.00;;;;;;;;5072586;28;45797;-63
2022/08/10 12:26:17;;;;;;;;;6.50;6.50;;;;;;;;5068845;27;45540;-62
2022/08/10 12:28:46;;;;;;;;;6.25;6.25;;;;;;;;5050495;27;45556;-62
2022/08/10 12:31:12;;;;;;;;;7.25;6.25;;;;;;;;5033992;28;45400;-62
2022/08/10 12:33:54;;;;;;;;;8.00;7.75;;;;;;;;5033072;28;49236;-63
2022/08/10 12:36:26;;;;;;;;;6.00;6.00;;;;;;;;5052035;28;45346;-62
2022/08/10 12:39:00;;;;;;;;;8.25;8.25;;;;;;;;5051316;28;45381;-63
2022/08/10 12:41:44;;;;;;;;;7.00;7.00;;;;;;;;5051759;28;45370;-63
2022/08/10 12:44:28;;;;;;;;;4.50;4.50;;;;;;;;5051684;28;46519;-64
2022/08/10 12:46:57;;;;;;;;;6.00;6.00;;;;;;;;5051911;28;45521;-64
2022/08/10 12:49:34;;;;;;;;;7.50;7.50;;;;;;;;5052046;28;45402;-63
2022/08/10 12:52:04;;;;;;;;;4.00;4.00;;;;;;;;5052025;28;45486;-63
2022/08/10 12:54:35;;;;;;;;;7.50;6.25;;;;;;;;5051852;28;46469;-63
2022/08/10 12:57:06;;;;;;;;;7.75;7.75;;;;;;;;5051648;28;45504;-63
2022/08/10 12:59:32;;;;;;;;;6.25;6.25;;;;;;;;5051850;28;45350;-61
2022/08/10 13:01:58;;;;;;;;;8.00;8.00;;;;;;;;5033872;28;45407;-63
2022/08/10 13:04:29;;;;;;;;;8.25;7.25;;;;;;;;5033507;28;48561;-63
2022/08/10 13:06:55;;;;;;;;;6.50;6.00;;;;;;;;5033499;28;45350;-63
2022/08/10 13:09:21;;;;;;;;;7.25;7.25;;;;;;;;5051694;28;45399;-63
2022/08/10 13:11:49;;;;;;;;;7.00;7.00;;;;;;;;5051672;28;45410;-63
2022/08/10 13:14:17;;;;;;;;;8.75;6.50;;;;;;;;5051431;28;45978;-63
2022/08/10 13:16:45;;;;;;;;;8.50;7.75;;;;;;;;5051440;28;45394;-62
2022/08/10 13:19:13;;;;;;;;;6.00;6.00;;;;;;;;5051655;28;45398;-63
2022/08/10 13:21:39;;;;;;;;;6.75;6.75;;;;;;;;5051370;27;45338;-63
2022/08/10 13:24:11;;;;;;;;;5.00;5.00;;;;;;;;5051368;28;45993;-62
2022/08/10 13:26:51;;;;;;;;;7.25;6.00;;;;;;;;5051257;28;45504;-63
2022/08/10 13:29:18;;;;;;;;;6.50;6.50;;;;;;;;5051649;28;45734;-63
2022/08/10 13:31:46;;;;;;;;;5.25;5.25;;;;;;;;5051474;28;45398;-63
2022/08/10 13:34:18;;;;;;;;;5.75;5.75;;;;;;;;5051191;28;46612;-63
2022/08/10 13:36:46;;;;;;;;;5.00;5.00;;;;;;;;5049279;28;45386;-62
2022/08/10 13:39:12;;;;;;;;;6.75;6.75;;;;;;;;5050964;28;45354;-63
2022/08/10 13:41:39;;;;;;;;;7.50;7.00;;;;;;;;5051076;28;45427;-62
2022/08/10 13:44:06;;;;;;;;;6.50;5.75;;;;;;;;5050919;28;45612;-62
2022/08/10 13:46:32;;;;;;;;;6.75;5.75;;;;;;;;5050984;28;45418;-62
2022/08/10 13:48:58;;;;;;;;;7.50;7.00;;;;;;;;5032946;28;45366;-62
2022/08/10 13:51:25;;;;;;;;;7.00;7.00;;;;;;;;5052684;28;45483;-63
2022/08/10 13:53:56;;;;;;;;;6.00;6.00;;;;;;;;5036237;27;46725;-63
2022/08/10 13:56:22;;;;;;;;;4.25;4.25;;;;;;;;5053903;28;45447;-62
2022/08/10 13:58:49;;;;;;;;;5.00;5.00;;;;;;;;5036185;28;45358;-62
2022/08/10 14:01:19;;;;;;;;;6.75;6.75;;;;;;;;5054312;28;45308;-63
2022/08/10 14:03:46;;;;;;;;;6.50;6.50;;;;;;;;5053969;28;45501;-63
2022/08/10 14:06:13;;;;;;;;;6.75;6.75;;;;;;;;5019353;28;46495;-63
2022/08/10 14:08:40;;;;;;;;;7.25;5.75;;;;;;;;5054144;28;45525;-64
2022/08/10 14:11:10;;;;;;;;;6.50;6.50;;;;;;;;5053972;28;45479;-63
2022/08/10 14:13:36;;;;;;;;;6.75;6.25;;;;;;;;5053736;28;46670;-62
2022/08/10 14:16:06;;;;;;;;;6.50;6.50;;;;;;;;5053546;28;45587;-62
2022/08/10 14:18:32;;;;;;;;;5.50;5.50;;;;;;;;5054094;28;45378;-63
2022/08/10 14:20:58;;;;;;;;;4.25;4.25;;;;;;;;5053610;28;45367;-62
2022/08/10 14:23:24;;;;;;;;;5.00;5.00;;;;;;;;5053564;28;45605;-62
2022/08/10 14:25:54;;;;;;;;;6.50;6.25;;;;;;;;5035522;28;45428;-63
2022/08/10 14:28:23;;;;;;;;;6.00;5.00;;;;;;;;5036041;28;45444;-62
2022/08/10 14:31:00;;;;;;;;;6.00;6.00;;;;;;;;5053618;28;45374;-63
2022/08/10 14:33:26;;;;;;;;;6.25;6.25;;;;;;;;5053675;28;46480;-62
2022/08/10 14:35:53;;;;;;;;;6.00;6.00;;;;;;;;5035445;28;45518;-62
2022/08/10 14:38:19;;;;;;;;;6.25;6.25;;;;;;;;5054050;28;45450;-62
2022/08/10 14:40:48;;;;;;;;;5.00;5.00;;;;;;;;5035641;28;45401;-62
2022/08/10 14:43:18;;;;;;;;;5.25;5.25;;;;;;;;5053490;28;45816;-63
2022/08/10 14:45:44;;;;;;;;;6.75;6.75;;;;;;;;5053415;28;45464;-63
2022/08/10 14:48:15;;;;;;;;;5.75;5.75;;;;;;;;5053537;28;45384;-63
2022/08/10 14:50:41;;;;;;;;;6.00;6.00;;;;;;;;5053622;28;45346;-62
2022/08/10 14:53:07;;;;;;;;;6.00;6.00;;;;;;;;5035367;28;47971;-63
2022/08/10 14:55:33;;;;;;;;;5.25;4.00;;;;;;;;5053486;28;45436;-63
2022/08/10 14:57:59;;;;;;;;;6.25;5.25;;;;;;;;5053443;28;45417;-62